sensor_id;sensor_type;location;lat;lon;timestamp;P1;durP1;ratioP1;P2;durP2;ratioP2
16967;SDS011;64862;54.398;10.126;2023-07-31T00:06:05;4.78;;;1.10;;
16967;SDS011;64862;54.398;10.126;2023-07-31T00:16:09;7.30;;;1.70;;
16967;SDS011;64862;54.398;10.126;2023-07-31T00:26:11;9.38;;;1.77;;
16967;SDS011;64862;54.398;10.126;2023-07-31T00:36:15;6.07;;;1.52;;
16967;SDS011;64862;54.398;10.126;2023-07-31T00:46:18;8.80;;;1.80;;
16967;SDS011;64862;54.398;10.126;2023-07-31T00:56:21;6.13;;;1.50;;
16967;SDS011;64862;54.398;10.126;2023-07-31T01:06:26;4.85;;;1.27;;
16967;SDS011;64862;54.398;10.126;2023-07-31T01:16:38;5.05;;;1.10;;
16967;SDS011;64862;54.398;10.126;2023-07-31T01:26:42;5.07;;;0.90;;
16967;SDS011;64862;54.398;10.126;2023-07-31T01:36:47;4.97;;;0.93;;
16967;SDS011;64862;54.398;10.126;2023-07-31T01:46:51;4.68;;;1.02;;
16967;SDS011;64862;54.398;10.126;2023-07-31T01:56:54;3.22;;;0.90;;
16967;SDS011;64862;54.398;10.126;2023-07-31T02:06:57;3.78;;;0.98;;
16967;SDS011;64862;54.398;10.126;2023-07-31T02:16:59;3.65;;;0.80;;
16967;SDS011;64862;54.398;10.126;2023-07-31T02:27:05;2.13;;;0.70;;
16967;SDS011;64862;54.398;10.126;2023-07-31T02:37:07;3.15;;;0.80;;
16967;SDS011;64862;54.398;10.126;2023-07-31T02:47:11;5.05;;;1.10;;
16967;SDS011;64862;54.398;10.126;2023-07-31T02:57:13;4.95;;;1.23;;
16967;SDS011;64862;54.398;10.126;2023-07-31T03:07:18;7.85;;;2.17;;
16967;SDS011;64862;54.398;10.126;2023-07-31T03:17:20;8.90;;;2.42;;
16967;SDS011;64862;54.398;10.126;2023-07-31T03:27:23;11.07;;;2.70;;
16967;SDS011;64862;54.398;10.126;2023-07-31T03:37:26;8.73;;;3.13;;
16967;SDS011;64862;54.398;10.126;2023-07-31T03:47:29;10.77;;;3.40;;
16967;SDS011;64862;54.398;10.126;2023-07-31T03:57:31;12.55;;;3.92;;
16967;SDS011;64862;54.398;10.126;2023-07-31T04:07:35;10.50;;;4.53;;
16967;SDS011;64862;54.398;10.126;2023-07-31T04:17:38;16.42;;;4.97;;
16967;SDS011;64862;54.398;10.126;2023-07-31T04:27:42;11.60;;;5.25;;
16967;SDS011;64862;54.398;10.126;2023-07-31T04:37:45;14.30;;;6.20;;
16967;SDS011;64862;54.398;10.126;2023-07-31T04:47:50;14.88;;;5.80;;
16967;SDS011;64862;54.398;10.126;2023-07-31T04:57:52;14.40;;;5.97;;
16967;SDS011;64862;54.398;10.126;2023-07-31T05:07:56;12.88;;;5.95;;
16967;SDS011;64862;54.398;10.126;2023-07-31T05:17:58;15.00;;;6.50;;
16967;SDS011;64862;54.398;10.126;2023-07-31T05:28:02;14.30;;;6.90;;
16967;SDS011;64862;54.398;10.126;2023-07-31T05:38:04;16.58;;;7.88;;
16967;SDS011;64862;54.398;10.126;2023-07-31T05:48:08;11.43;;;6.93;;
16967;SDS011;64862;54.398;10.126;2023-07-31T05:58:10;15.10;;;7.00;;
16967;SDS011;64862;54.398;10.126;2023-07-31T06:08:14;12.10;;;6.72;;
16967;SDS011;64862;54.398;10.126;2023-07-31T06:18:28;11.48;;;6.50;;
16967;SDS011;64862;54.398;10.126;2023-07-31T06:29:00;13.45;;;6.55;;
16967;SDS011;64862;54.398;10.126;2023-07-31T06:39:03;9.10;;;5.05;;
16967;SDS011;64862;54.398;10.126;2023-07-31T06:49:06;11.02;;;5.43;;
16967;SDS011;64862;54.398;10.126;2023-07-31T06:59:08;8.93;;;4.70;;
16967;SDS011;64862;54.398;10.126;2023-07-31T07:09:12;8.05;;;4.28;;
16967;SDS011;64862;54.398;10.126;2023-07-31T07:19:14;6.15;;;3.83;;
16967;SDS011;64862;54.398;10.126;2023-07-31T07:29:17;5.43;;;3.38;;
16967;SDS011;64862;54.398;10.126;2023-07-31T07:39:19;3.30;;;2.17;;
16967;SDS011;64862;54.398;10.126;2023-07-31T07:49:23;3.63;;;1.60;;
16967;SDS011;64862;54.398;10.126;2023-07-31T07:59:25;2.38;;;1.40;;
16967;SDS011;64862;54.398;10.126;2023-07-31T08:09:29;2.17;;;1.10;;
16967;SDS011;64862;54.398;10.126;2023-07-31T08:19:32;1.92;;;1.02;;
16967;SDS011;64862;54.398;10.126;2023-07-31T08:29:36;6.82;;;1.00;;
16967;SDS011;64862;54.398;10.126;2023-07-31T08:39:38;5.25;;;0.70;;
16967;SDS011;64862;54.398;10.126;2023-07-31T08:49:41;1.30;;;0.77;;
16967;SDS011;64862;54.398;10.126;2023-07-31T08:59:45;2.55;;;0.90;;
16967;SDS011;64862;54.398;10.126;2023-07-31T09:09:49;1.85;;;1.00;;
16967;SDS011;64862;54.398;10.126;2023-07-31T09:19:51;2.83;;;1.10;;
16967;SDS011;64862;54.398;10.126;2023-07-31T09:29:59;1.63;;;0.90;;
16967;SDS011;64862;54.398;10.126;2023-07-31T09:40:01;1.58;;;1.00;;
16967;SDS011;64862;54.398;10.126;2023-07-31T09:50:08;2.30;;;1.13;;
16967;SDS011;64862;54.398;10.126;2023-07-31T10:00:11;2.42;;;1.27;;
16967;SDS011;64862;54.398;10.126;2023-07-31T10:10:16;2.63;;;1.30;;
16967;SDS011;64862;54.398;10.126;2023-07-31T10:20:21;2.95;;;1.25;;
16967;SDS011;64862;54.398;10.126;2023-07-31T10:30:27;2.45;;;1.05;;
16967;SDS011;64862;54.398;10.126;2023-07-31T10:40:32;2.60;;;1.40;;
16967;SDS011;64862;54.398;10.126;2023-07-31T10:50:38;2.20;;;1.40;;
16967;SDS011;64862;54.398;10.126;2023-07-31T11:00:49;4.00;;;1.77;;
16967;SDS011;64862;54.398;10.126;2023-07-31T11:11:04;3.03;;;1.48;;
16967;SDS011;64862;54.398;10.126;2023-07-31T11:21:08;2.95;;;1.75;;
16967;SDS011;64862;54.398;10.126;2023-07-31T11:31:14;3.28;;;1.73;;
16967;SDS011;64862;54.398;10.126;2023-07-31T11:41:16;3.10;;;1.73;;
16967;SDS011;64862;54.398;10.126;2023-07-31T11:51:20;3.45;;;1.42;;
16967;SDS011;64862;54.398;10.126;2023-07-31T12:01:23;3.33;;;1.60;;
16967;SDS011;64862;54.398;10.126;2023-07-31T12:11:29;3.72;;;1.63;;
16967;SDS011;64862;54.398;10.126;2023-07-31T12:21:31;3.55;;;1.50;;
16967;SDS011;64862;54.398;10.126;2023-07-31T12:31:35;3.00;;;1.60;;
16967;SDS011;64862;54.398;10.126;2023-07-31T12:41:37;3.40;;;1.73;;
16967;SDS011;64862;54.398;10.126;2023-07-31T12:51:41;2.47;;;1.33;;
16967;SDS011;64862;54.398;10.126;2023-07-31T13:01:43;5.18;;;1.92;;
16967;SDS011;64862;54.398;10.126;2023-07-31T13:11:46;2.13;;;1.40;;
16967;SDS011;64862;54.398;10.126;2023-07-31T13:21:49;2.03;;;1.40;;
16967;SDS011;64862;54.398;10.126;2023-07-31T13:31:53;2.25;;;1.27;;
16967;SDS011;64862;54.398;10.126;2023-07-31T13:41:55;2.22;;;1.20;;
16967;SDS011;64862;54.398;10.126;2023-07-31T13:52:00;2.90;;;1.45;;
16967;SDS011;64862;54.398;10.126;2023-07-31T14:02:02;3.20;;;1.38;;
16967;SDS011;64862;54.398;10.126;2023-07-31T14:12:07;1.85;;;1.15;;
16967;SDS011;64862;54.398;10.126;2023-07-31T14:22:09;1.60;;;1.00;;
16967;SDS011;64862;54.398;10.126;2023-07-31T14:32:13;1.90;;;0.90;;
16967;SDS011;64862;54.398;10.126;2023-07-31T14:42:15;1.95;;;1.10;;
16967;SDS011;64862;54.398;10.126;2023-07-31T14:52:20;1.85;;;1.00;;
16967;SDS011;64862;54.398;10.126;2023-07-31T15:02:22;1.80;;;0.95;;
16967;SDS011;64862;54.398;10.126;2023-07-31T15:12:28;1.67;;;0.95;;
16967;SDS011;64862;54.398;10.126;2023-07-31T15:22:30;1.35;;;0.80;;
16967;SDS011;64862;54.398;10.126;2023-07-31T15:32:34;2.20;;;0.90;;
16967;SDS011;64862;54.398;10.126;2023-07-31T15:42:38;1.77;;;0.90;;
16967;SDS011;64862;54.398;10.126;2023-07-31T15:52:43;2.83;;;0.82;;
16967;SDS011;64862;54.398;10.126;2023-07-31T16:02:45;4.75;;;1.20;;
16967;SDS011;64862;54.398;10.126;2023-07-31T16:12:49;1.75;;;1.00;;
16967;SDS011;64862;54.398;10.126;2023-07-31T16:22:51;1.70;;;1.00;;
16967;SDS011;64862;54.398;10.126;2023-07-31T16:32:55;1.77;;;0.82;;
16967;SDS011;64862;54.398;10.126;2023-07-31T16:42:57;1.92;;;0.90;;
16967;SDS011;64862;54.398;10.126;2023-07-31T16:53:00;1.25;;;0.70;;
16967;SDS011;64862;54.398;10.126;2023-07-31T17:03:03;2.28;;;0.93;;
16967;SDS011;64862;54.398;10.126;2023-07-31T17:13:07;3.15;;;0.90;;
16967;SDS011;64862;54.398;10.126;2023-07-31T17:23:09;2.67;;;0.80;;
16967;SDS011;64862;54.398;10.126;2023-07-31T17:33:13;5.38;;;1.00;;
16967;SDS011;64862;54.398;10.126;2023-07-31T17:43:15;3.05;;;0.80;;
16967;SDS011;64862;54.398;10.126;2023-07-31T17:53:20;2.65;;;0.90;;
16967;SDS011;64862;54.398;10.126;2023-07-31T18:03:22;3.00;;;0.90;;
16967;SDS011;64862;54.398;10.126;2023-07-31T18:13:27;1.83;;;0.90;;
16967;SDS011;64862;54.398;10.126;2023-07-31T18:23:29;1.90;;;0.90;;
16967;SDS011;64862;54.398;10.126;2023-07-31T18:33:33;2.92;;;0.98;;
16967;SDS011;64862;54.398;10.126;2023-07-31T18:43:35;2.15;;;0.77;;
16967;SDS011;64862;54.398;10.126;2023-07-31T18:53:38;2.38;;;0.90;;
16967;SDS011;64862;54.398;10.126;2023-07-31T19:03:40;5.38;;;0.82;;
16967;SDS011;64862;54.398;10.126;2023-07-31T19:13:44;2.97;;;1.20;;
16967;SDS011;64862;54.398;10.126;2023-07-31T19:23:46;3.00;;;1.40;;
16967;SDS011;64862;54.398;10.126;2023-07-31T19:33:52;3.25;;;1.60;;
16967;SDS011;64862;54.398;10.126;2023-07-31T19:43:54;4.43;;;2.00;;
16967;SDS011;64862;54.398;10.126;2023-07-31T19:53:57;4.35;;;2.30;;
16967;SDS011;64862;54.398;10.126;2023-07-31T20:03:59;7.30;;;2.67;;
16967;SDS011;64862;54.398;10.126;2023-07-31T20:14:05;7.20;;;3.13;;
16967;SDS011;64862;54.398;10.126;2023-07-31T20:24:07;4.63;;;2.92;;
16967;SDS011;64862;54.398;10.126;2023-07-31T20:34:12;6.45;;;3.70;;
16967;SDS011;64862;54.398;10.126;2023-07-31T20:44:14;8.82;;;4.05;;
16967;SDS011;64862;54.398;10.126;2023-07-31T20:54:18;8.15;;;4.28;;
16967;SDS011;64862;54.398;10.126;2023-07-31T21:04:20;4.88;;;4.38;;
16967;SDS011;64862;54.398;10.126;2023-07-31T21:14:24;7.07;;;4.50;;
16967;SDS011;64862;54.398;10.126;2023-07-31T21:24:26;7.90;;;5.28;;
16967;SDS011;64862;54.398;10.126;2023-07-31T21:34:30;8.82;;;5.13;;
16967;SDS011;64862;54.398;10.126;2023-07-31T21:44:34;10.77;;;5.40;;
16967;SDS011;64862;54.398;10.126;2023-07-31T21:54:38;11.57;;;5.70;;
16967;SDS011;64862;54.398;10.126;2023-07-31T22:04:40;9.15;;;5.60;;
16967;SDS011;64862;54.398;10.126;2023-07-31T22:14:45;9.75;;;5.60;;
16967;SDS011;64862;54.398;10.126;2023-07-31T22:24:47;9.00;;;5.18;;
16967;SDS011;64862;54.398;10.126;2023-07-31T22:34:51;8.02;;;4.60;;
16967;SDS011;64862;54.398;10.126;2023-07-31T22:44:53;8.43;;;3.80;;
16967;SDS011;64862;54.398;10.126;2023-07-31T22:54:57;6.30;;;3.17;;
16967;SDS011;64862;54.398;10.126;2023-07-31T23:04:59;4.60;;;3.00;;
16967;SDS011;64862;54.398;10.126;2023-07-31T23:15:03;5.43;;;2.97;;
16967;SDS011;64862;54.398;10.126;2023-07-31T23:25:06;4.25;;;2.90;;
16967;SDS011;64862;54.398;10.126;2023-07-31T23:35:11;4.20;;;2.92;;
16967;SDS011;64862;54.398;10.126;2023-07-31T23:45:13;3.63;;;2.40;;
16967;SDS011;64862;54.398;10.126;2023-07-31T23:55:17;5.10;;;3.20;;
